Time;durP1;ratioP1;P1;durP2;ratioP2;P2;SDS_P1;SDS_P2;PMS_P1;PMS_P2;Temp;Humidity;BMP_temperature;BMP_pressure;BME280_temperature;BME280_humidity;BME280_pressure;Samples;Min_cycle;Max_cycle;Signal;HPM_P1;HPM_P2
2021/03/31 00:00:41;;;;;;;3.25;2.30;;;18.80;51.10;;;;;;4917880;29;20300;-65
2021/03/31 00:03:13;;;;;;;2.92;2.50;;;18.80;51.20;;;;;;4900520;29;20203;-67
2021/03/31 00:05:39;;;;;;;3.42;2.28;;;18.80;51.10;;;;;;4900681;29;20272;-66
2021/03/31 00:08:05;;;;;;;2.55;2.30;;;18.80;51.10;;;;;;4917880;29;20207;-67
2021/03/31 00:10:52;;;;;;;2.90;2.47;;;18.80;51.20;;;;;;4884811;29;20273;-68
2021/03/31 00:13:18;;;;;;;4.50;2.35;;;18.80;51.10;;;;;;4900277;29;20199;-67
2021/03/31 00:15:44;;;;;;;2.50;2.30;;;18.80;51.20;;;;;;4884883;29;20176;-67
2021/03/31 00:18:10;;;;;;;2.88;2.38;;;18.80;51.20;;;;;;4900907;29;20187;-66
2021/03/31 00:20:36;;;;;;;3.42;2.65;;;18.80;51.10;;;;;;4917665;29;20255;-66
2021/03/31 00:23:08;;;;;;;2.63;2.20;;;18.80;51.10;;;;;;4900310;29;20256;-67
2021/03/31 00:25:34;;;;;;;2.38;2.17;;;18.80;51.20;;;;;;4900399;29;20180;-66
2021/03/31 00:28:00;;;;;;;3.22;1.98;;;18.80;51.20;;;;;;4885355;29;20242;-66
2021/03/31 00:30:26;;;;;;;2.75;2.55;;;18.70;51.10;;;;;;4884383;29;20178;-66
2021/03/31 00:32:52;;;;;;;3.15;2.28;;;18.80;51.20;;;;;;4885103;29;20192;-66
2021/03/31 00:35:17;;;;;;;2.08;1.80;;;18.80;51.20;;;;;;4917595;29;20596;-66
2021/03/31 00:37:43;;;;;;;2.10;1.83;;;18.80;51.90;;;;;;4899802;29;20176;-66
2021/03/31 00:40:11;;;;;;;2.30;2.10;;;18.70;51.20;;;;;;4917294;29;20754;-67
2021/03/31 00:42:37;;;;;;;2.28;2.05;;;18.80;51.20;;;;;;4900057;29;20176;-65
2021/03/31 00:45:03;;;;;;;2.47;2.28;;;18.70;51.80;;;;;;4899583;29;20191;-66
2021/03/31 00:47:29;;;;;;;2.22;2.03;;;18.70;51.10;;;;;;4884459;29;20188;-66
2021/03/31 00:49:54;;;;;;;2.53;2.33;;;18.70;51.20;;;;;;4900485;29;20263;-66
2021/03/31 00:52:20;;;;;;;2.42;2.10;;;18.70;51.10;;;;;;4899477;29;20526;-65
2021/03/31 00:54:46;;;;;;;2.33;2.13;;;18.70;51.20;;;;;;4884612;29;20239;-66
2021/03/31 00:57:11;;;;;;;3.00;2.40;;;18.70;51.20;;;;;;4884586;29;20223;-67
2021/03/31 00:59:37;;;;;;;2.38;2.10;;;18.70;51.20;;;;;;4916227;29;20179;-67
2021/03/31 01:02:03;;;;;;;2.22;2.03;;;18.70;51.20;;;;;;4884350;29;20186;-67
2021/03/31 01:04:28;;;;;;;3.13;2.20;;;18.70;51.20;;;;;;4883876;29;20630;-66
2021/03/31 01:06:54;;;;;;;2.25;2.08;;;18.70;51.20;;;;;;4917059;29;20195;-67
2021/03/31 01:09:19;;;;;;;2.03;1.77;;;18.70;51.20;;;;;;4899948;29;20187;-67
2021/03/31 01:11:52;;;;;;;2.22;1.98;;;18.60;51.10;;;;;;4884045;29;20220;-67
2021/03/31 01:14:41;;;;;;;2.42;2.13;;;18.60;51.20;;;;;;4899960;29;20179;-67
2021/03/31 01:17:10;;;;;;;3.58;2.42;;;18.70;51.20;;;;;;4902766;29;20175;-68
2021/03/31 01:20:03;;;;;;;2.20;2.00;;;18.60;51.10;;;;;;4883808;29;20193;-66
2021/03/31 01:23:04;;;;;;;2.35;2.15;;;18.70;51.20;;;;;;4916544;29;20198;-67
2021/03/31 01:25:32;;;;;;;2.72;2.35;;;18.60;51.10;;;;;;4899521;29;20184;-65
2021/03/31 01:28:10;;;;;;;2.58;2.17;;;18.60;51.20;;;;;;4916318;29;20180;-65
2021/03/31 01:31:00;;;;;;;2.78;2.40;;;18.60;51.10;;;;;;4884406;29;20575;-66
2021/03/31 01:33:38;;;;;;;2.70;2.30;;;18.60;51.10;;;;;;4915780;29;20176;-66
2021/03/31 01:36:03;;;;;;;2.22;1.98;;;18.60;51.20;;;;;;4916458;29;20180;-67
2021/03/31 01:38:29;;;;;;;2.42;2.20;;;18.60;51.20;;;;;;4868202;29;20179;-66
2021/03/31 01:40:55;;;;;;;2.35;2.00;;;18.60;51.20;;;;;;4883525;29;20179;-68
2021/03/31 01:43:22;;;;;;;2.05;1.85;;;18.60;51.20;;;;;;4899288;29;20260;-66
2021/03/31 01:45:50;;;;;;;2.85;2.45;;;18.50;51.10;;;;;;4883998;29;20189;-65
2021/03/31 01:48:18;;;;;;;3.10;2.38;;;18.60;51.20;;;;;;4883729;29;20296;-66
2021/03/31 01:50:46;;;;;;;2.63;2.42;;;18.60;51.20;;;;;;4883838;29;20187;-67
2021/03/31 01:53:12;;;;;;;2.50;2.15;;;18.50;51.10;;;;;;4884187;29;20168;-66
2021/03/31 01:55:38;;;;;;;2.45;2.20;;;18.50;51.10;;;;;;4898725;29;20523;-66
2021/03/31 01:58:03;;;;;;;2.85;2.05;;;18.60;51.20;;;;;;4900824;29;20202;-66
2021/03/31 02:00:31;;;;;;;3.38;2.20;;;18.60;51.20;;;;;;4887682;29;20211;-67
2021/03/31 02:02:56;;;;;;;2.80;2.15;;;18.60;51.20;;;;;;4919443;29;20180;-67
2021/03/31 02:05:22;;;;;;;2.72;2.30;;;18.50;51.80;;;;;;4884190;29;20228;-67
2021/03/31 02:07:48;;;;;;;2.30;2.00;;;18.60;51.10;;;;;;4883807;29;20219;-67
2021/03/31 02:10:14;;;;;;;3.45;2.30;;;18.50;51.10;;;;;;4884344;29;20188;-67
2021/03/31 02:12:40;;;;;;;2.70;2.35;;;18.50;51.10;;;;;;4899766;29;20177;-68
2021/03/31 02:15:07;;;;;;;2.92;2.30;;;18.50;51.10;;;;;;4899391;29;20984;-68
2021/03/31 02:17:33;;;;;;;2.20;2.00;;;18.50;51.10;;;;;;4884229;29;20177;-66
2021/03/31 02:19:58;;;;;;;2.25;2.05;;;18.50;51.20;;;;;;4884330;29;20255;-67
2021/03/31 02:22:25;;;;;;;4.07;2.05;;;18.40;51.10;;;;;;4883588;29;20172;-66
2021/03/31 02:24:50;;;;;;;2.38;2.15;;;18.50;51.10;;;;;;4884059;29;20223;-66
2021/03/31 02:27:16;;;;;;;2.90;2.63;;;18.50;51.10;;;;;;4899775;29;20173;-66
2021/03/31 02:29:45;;;;;;;2.67;2.42;;;18.50;51.20;;;;;;4883331;29;20205;-66
2021/03/31 02:32:11;;;;;;;2.75;2.20;;;18.50;51.20;;;;;;4883961;29;20173;-66
2021/03/31 02:34:37;;;;;;;2.22;2.00;;;18.50;51.10;;;;;;4883782;29;20581;-66
2021/03/31 02:37:06;;;;;;;2.65;2.45;;;18.50;51.10;;;;;;4883378;29;20239;-67
2021/03/31 02:39:35;;;;;;;2.25;2.00;;;18.50;51.10;;;;;;4883943;29;20215;-66
2021/03/31 02:42:01;;;;;;;2.97;2.40;;;18.50;51.10;;;;;;4899534;29;20593;-66
2021/03/31 02:44:28;;;;;;;2.60;2.40;;;18.40;51.10;;;;;;4882996;29;20215;-66
2021/03/31 02:46:54;;;;;;;2.35;2.15;;;18.40;51.10;;;;;;4883723;29;20545;-67
2021/03/31 02:49:19;;;;;;;2.75;2.55;;;18.40;51.10;;;;;;4883680;29;20524;-65
2021/03/31 02:51:45;;;;;;;2.30;2.10;;;18.40;51.10;;;;;;4898968;29;20685;-65
2021/03/31 02:54:11;;;;;;;2.50;2.30;;;18.40;51.10;;;;;;4883618;29;20180;-66
2021/03/31 02:56:39;;;;;;;2.47;2.28;;;18.40;51.10;;;;;;4883496;29;20546;-67
2021/03/31 02:59:04;;;;;;;2.20;2.10;;;18.40;51.10;;;;;;4882910;29;20172;-68
2021/03/31 03:01:30;;;;;;;2.45;2.25;;;18.40;51.10;;;;;;4883411;29;20180;-66
2021/03/31 03:03:55;;;;;;;2.40;2.20;;;18.40;51.70;;;;;;4898931;29;20566;-66
2021/03/31 03:06:23;;;;;;;2.40;2.20;;;18.40;51.20;;;;;;4899266;29;20224;-66
2021/03/31 03:08:48;;;;;;;2.50;2.30;;;18.40;51.10;;;;;;4883210;29;20181;-67
2021/03/31 03:11:14;;;;;;;2.50;2.30;;;18.40;51.10;;;;;;4899874;29;20184;-66
2021/03/31 03:13:40;;;;;;;2.05;1.85;;;18.40;51.10;;;;;;4882993;29;20180;-66
2021/03/31 03:16:05;;;;;;;3.40;2.00;;;18.40;51.10;;;;;;4883305;29;20245;-66
2021/03/31 03:18:31;;;;;;;2.40;2.13;;;18.40;51.80;;;;;;4867101;29;20215;-66
2021/03/31 03:20:57;;;;;;;2.92;2.17;;;18.40;51.10;;;;;;4883125;29;20231;-66
2021/03/31 03:23:22;;;;;;;2.55;2.35;;;18.30;51.10;;;;;;4882800;29;20216;-65
2021/03/31 03:25:48;;;;;;;2.50;2.30;;;18.30;51.70;;;;;;4899096;29;20257;-65
2021/03/31 03:28:18;;;;;;;2.53;2.08;;;18.30;51.00;;;;;;4867950;29;20252;-65
2021/03/31 03:30:44;;;;;;;2.33;2.13;;;18.30;51.10;;;;;;4868163;29;20720;-65
2021/03/31 03:33:10;;;;;;;2.47;2.28;;;18.30;51.70;;;;;;4851688;29;20188;-67
2021/03/31 03:35:35;;;;;;;2.85;2.42;;;18.30;51.70;;;;;;4882688;29;20180;-66
2021/03/31 03:38:01;;;;;;;2.78;2.50;;;18.30;51.10;;;;;;4899756;29;20176;-66
2021/03/31 03:40:27;;;;;;;2.17;2.05;;;18.30;51.00;;;;;;4898825;29;20676;-66
2021/03/31 03:42:52;;;;;;;2.92;2.22;;;18.30;51.00;;;;;;4899569;29;20177;-66
2021/03/31 03:45:19;;;;;;;3.22;2.30;;;18.30;51.10;;;;;;4867286;29;20605;-66
2021/03/31 03:47:45;;;;;;;2.40;2.20;;;18.30;51.10;;;;;;4882398;29;20588;-65
2021/03/31 03:50:12;;;;;;;2.92;2.55;;;18.30;51.10;;;;;;4867242;29;20650;-67
2021/03/31 03:52:38;;;;;;;2.65;2.42;;;18.30;51.00;;;;;;4867135;29;20204;-67
2021/03/31 03:55:05;;;;;;;3.10;2.38;;;18.30;51.00;;;;;;4882051;29;20184;-67
2021/03/31 03:57:30;;;;;;;2.42;2.22;;;18.30;51.10;;;;;;4882410;29;20185;-67
2021/03/31 03:59:56;;;;;;;2.40;2.20;;;18.20;50.90;;;;;;4882432;29;20216;-66
2021/03/31 04:02:22;;;;;;;2.70;2.50;;;18.30;51.00;;;;;;4866342;29;20181;-67
2021/03/31 04:04:48;;;;;;;2.83;2.42;;;18.30;51.10;;;;;;4882204;29;20220;-66
2021/03/31 04:07:14;;;;;;;2.38;2.00;;;18.30;51.00;;;;;;4882577;29;20169;-67
2021/03/31 04:09:48;;;;;;;2.60;2.40;;;18.30;51.00;;;;;;4850721;29;20317;-67
2021/03/31 04:12:16;;;;;;;2.35;2.15;;;18.20;51.00;;;;;;4851751;29;20211;-68
2021/03/31 04:14:41;;;;;;;2.50;2.30;;;18.20;51.00;;;;;;4865917;29;20432;-68
2021/03/31 04:17:08;;;;;;;2.33;2.13;;;18.20;51.00;;;;;;4866825;29;20836;-68
2021/03/31 04:19:34;;;;;;;2.88;2.47;;;18.20;51.00;;;;;;4866213;29;20645;-68
2021/03/31 04:22:00;;;;;;;2.78;2.17;;;18.20;51.00;;;;;;4880564;29;20636;-67
2021/03/31 04:24:26;;;;;;;2.88;2.25;;;18.20;51.00;;;;;;4866258;29;20223;-66
2021/03/31 04:26:51;;;;;;;4.43;2.40;;;18.20;51.00;;;;;;4866650;29;20191;-66
2021/03/31 04:29:17;;;;;;;2.80;2.50;;;18.20;51.00;;;;;;4881446;29;20184;-66
2021/03/31 04:31:42;;;;;;;2.45;2.20;;;18.20;51.00;;;;;;4866321;29;20184;-65
2021/03/31 04:34:08;;;;;;;2.55;2.35;;;18.20;51.00;;;;;;4866453;29;20545;-67
2021/03/31 04:36:34;;;;;;;2.72;2.53;;;18.20;51.00;;;;;;4880970;29;20236;-66
2021/03/31 04:39:03;;;;;;;2.10;2.00;;;18.20;51.00;;;;;;4881854;29;20182;-67
2021/03/31 04:41:28;;;;;;;2.45;2.20;;;18.20;51.00;;;;;;4882071;29;20180;-67
2021/03/31 04:43:54;;;;;;;2.63;2.42;;;18.20;51.00;;;;;;4897602;29;20212;-66
2021/03/31 04:46:20;;;;;;;2.35;2.15;;;18.20;51.00;;;;;;4898274;29;20308;-67
2021/03/31 04:48:45;;;;;;;2.63;2.42;;;18.20;51.00;;;;;;4881700;29;20173;-66
2021/03/31 04:51:11;;;;;;;2.80;2.47;;;18.10;50.90;;;;;;4897608;29;20180;-65
2021/03/31 04:53:36;;;;;;;2.78;2.35;;;18.10;51.60;;;;;;4881427;29;20645;-65
2021/03/31 04:56:02;;;;;;;2.45;1.92;;;18.10;51.00;;;;;;4866037;29;20187;-68
2021/03/31 04:58:28;;;;;;;2.70;2.50;;;18.10;51.00;;;;;;4897294;29;20165;-67
2021/03/31 05:00:54;;;;;;;2.70;2.50;;;18.10;51.00;;;;;;4897919;29;20181;-65
2021/03/31 05:03:19;;;;;;;3.92;3.03;;;18.10;50.90;;;;;;4897947;29;20236;-66
2021/03/31 05:05:45;;;;;;;2.85;2.38;;;18.10;51.00;;;;;;4880711;29;20228;-65
2021/03/31 05:08:11;;;;;;;2.92;2.65;;;18.10;51.00;;;;;;4865730;29;20649;-66
2021/03/31 05:10:36;;;;;;;2.78;2.30;;;18.10;51.00;;;;;;4880890;29;20700;-67
2021/03/31 05:13:02;;;;;;;3.03;2.72;;;18.10;51.00;;;;;;4897734;29;20169;-67
2021/03/31 05:15:28;;;;;;;2.70;2.30;;;18.10;51.00;;;;;;4897611;29;20176;-67
2021/03/31 05:17:53;;;;;;;2.60;2.40;;;18.10;50.90;;;;;;4897183;29;20204;-66
2021/03/31 05:20:19;;;;;;;3.20;2.90;;;18.10;51.00;;;;;;4880911;29;20185;-66
2021/03/31 05:22:45;;;;;;;2.72;2.53;;;18.10;51.00;;;;;;4897942;29;20711;-66
2021/03/31 05:25:11;;;;;;;3.05;2.70;;;18.10;51.00;;;;;;4880266;29;20188;-65
2021/03/31 05:27:36;;;;;;;3.70;2.70;;;18.10;51.00;;;;;;4865757;29;20652;-65
2021/03/31 05:30:07;;;;;;;2.63;2.42;;;18.00;50.90;;;;;;4865484;29;20180;-65
2021/03/31 05:32:32;;;;;;;3.10;2.88;;;18.00;50.90;;;;;;4849210;29;20180;-66
2021/03/31 05:34:58;;;;;;;2.78;2.58;;;18.00;51.00;;;;;;4881075;29;20169;-67
2021/03/31 05:37:24;;;;;;;2.95;2.75;;;18.00;50.90;;;;;;4897293;29;20540;-66
2021/03/31 05:39:49;;;;;;;2.80;2.60;;;18.00;50.90;;;;;;4849405;29;20215;-66
2021/03/31 05:42:15;;;;;;;2.95;2.50;;;18.00;51.00;;;;;;4865397;29;20180;-66
2021/03/31 05:44:41;;;;;;;3.83;2.58;;;18.00;51.70;;;;;;4897227;29;20355;-65
2021/03/31 05:47:07;;;;;;;2.83;2.63;;;18.00;51.10;;;;;;4880240;29;20200;-65
2021/03/31 05:49:33;;;;;;;2.40;2.20;;;18.00;51.00;;;;;;4865167;29;20269;-64
2021/03/31 05:51:58;;;;;;;2.58;2.38;;;18.00;51.00;;;;;;4865380;29;20188;-64
2021/03/31 05:54:24;;;;;;;2.80;2.60;;;18.00;51.00;;;;;;4880009;29;20177;-66
2021/03/31 05:56:51;;;;;;;3.00;2.75;;;18.00;51.00;;;;;;4897484;29;20670;-67
2021/03/31 05:59:16;;;;;;;3.40;2.92;;;18.00;51.00;;;;;;4881194;29;20183;-66
2021/03/31 06:01:42;;;;;;;3.38;3.08;;;18.00;51.00;;;;;;4864327;29;20543;-65
2021/03/31 06:04:08;;;;;;;3.20;2.90;;;18.00;51.10;;;;;;4865005;29;20251;-66
2021/03/31 06:06:33;;;;;;;3.70;2.90;;;18.00;51.10;;;;;;4897077;29;20272;-66
2021/03/31 06:08:59;;;;;;;2.90;2.70;;;18.00;51.00;;;;;;4896622;29;20180;-67
2021/03/31 06:11:25;;;;;;;2.92;2.50;;;18.00;51.10;;;;;;4880551;29;20176;-67
2021/03/31 06:13:52;;;;;;;4.63;3.15;;;18.00;51.10;;;;;;4880571;29;20173;-66
2021/03/31 06:16:45;;;;;;;3.30;3.00;;;17.90;51.00;;;;;;4880249;29;20184;-66
2021/03/31 06:19:21;;;;;;;3.00;2.70;;;18.00;51.10;;;;;;4895038;29;20185;-65
2021/03/31 06:22:30;;;;;;;3.03;2.72;;;18.00;51.10;;;;;;4896749;29;20176;-66
2021/03/31 06:25:16;;;;;;;3.05;2.75;;;17.90;51.00;;;;;;4882044;29;20450;-67
2021/03/31 06:27:42;;;;;;;4.50;2.70;;;18.00;51.00;;;;;;4896991;29;20177;-68
2021/03/31 06:30:08;;;;;;;3.30;2.80;;;18.00;50.90;;;;;;4864399;29;20240;-67
2021/03/31 06:32:40;;;;;;;4.15;2.38;;;18.00;50.80;;;;;;4864925;29;20189;-67
2021/03/31 06:35:28;;;;;;;3.65;2.88;;;18.10;50.80;;;;;;4896406;29;20180;-72
2021/03/31 06:38:07;;;;;;;4.55;2.55;;;18.10;50.70;;;;;;4897109;29;20180;-68
2021/03/31 06:40:41;;;;;;;3.63;3.30;;;18.10;50.80;;;;;;4880079;29;20172;-66
2021/03/31 06:43:20;;;;;;;4.40;2.78;;;18.10;50.80;;;;;;4880642;29;20519;-68
2021/03/31 06:48:47;;;;;;;8.90;4.00;;;18.10;50.80;;;;;;4848460;29;20280;-68
2021/03/31 06:51:23;;;;;;;5.30;3.90;;;18.20;50.80;;;;;;4884011;29;20168;-68
2021/03/31 06:53:49;;;;;;;3.95;3.42;;;18.20;50.80;;;;;;4868139;29;20172;-67
2021/03/31 06:56:14;;;;;;;4.60;3.97;;;18.20;50.90;;;;;;4883100;29;20172;-63
2021/03/31 06:58:40;;;;;;;4.65;3.58;;;18.20;51.00;;;;;;4867917;29;20172;-62
2021/03/31 07:01:24;;;;;;;5.28;3.17;;;18.20;51.00;;;;;;4867992;29;20645;-62
2021/03/31 07:03:51;;;;;;;7.47;3.30;;;18.30;51.00;;;;;;4883262;29;20204;-67
2021/03/31 07:06:18;;;;;;;5.75;3.45;;;18.30;51.00;;;;;;4869667;29;20224;-68
2021/03/31 07:08:44;;;;;;;9.18;3.67;;;18.30;51.00;;;;;;4883643;29;20312;-64
2021/03/31 07:11:09;;;;;;;4.40;3.75;;;18.30;51.10;;;;;;4867362;29;20263;-65
2021/03/31 07:13:35;;;;;;;3.67;3.30;;;18.30;51.10;;;;;;4883069;29;20184;-65
2021/03/31 07:16:04;;;;;;;3.40;3.10;;;18.30;51.00;;;;;;4883269;29;20185;-69
2021/03/31 07:18:30;;;;;;;4.35;3.95;;;18.40;51.00;;;;;;4882544;29;20181;-66
2021/03/31 07:20:56;;;;;;;5.10;3.45;;;18.40;50.80;;;;;;4883186;29;20255;-68
2021/03/31 07:23:22;;;;;;;4.82;2.75;;;18.50;50.50;;;;;;4882950;29;20678;-69
2021/03/31 07:25:55;;;;;;;4.03;3.35;;;18.50;50.60;;;;;;4899092;29;20185;-65
2021/03/31 07:28:24;;;;;;;4.75;3.20;;;18.50;50.80;;;;;;4899564;29;20640;-62
2021/03/31 07:30:49;;;;;;;3.83;3.35;;;18.50;51.10;;;;;;4899794;29;20179;-61
2021/03/31 07:33:25;;;;;;;4.53;3.30;;;18.50;50.90;;;;;;4867105;29;20172;-67
2021/03/31 07:35:51;;;;;;;4.28;2.83;;;18.60;50.80;;;;;;4883343;29;20172;-68
2021/03/31 07:38:20;;;;;;;3.60;3.28;;;18.50;51.00;;;;;;4883034;29;20264;-68
2021/03/31 07:40:47;;;;;;;7.07;3.80;;;18.50;51.10;;;;;;4883173;29;20169;-66
2021/03/31 07:43:22;;;;;;;5.18;3.30;;;18.50;51.00;;;;;;4882812;29;20226;-67
2021/03/31 07:45:54;;;;;;;4.55;3.42;;;18.50;51.00;;;;;;4867189;29;20271;-66
2021/03/31 07:48:19;;;;;;;4.13;3.03;;;18.50;51.60;;;;;;4867575;29;20271;-65
2021/03/31 07:50:45;;;;;;;3.75;3.20;;;18.50;51.40;;;;;;4867224;29;20256;-65
2021/03/31 07:53:12;;;;;;;5.93;3.25;;;18.50;51.00;;;;;;4881989;29;20187;-67
2021/03/31 07:55:47;;;;;;;3.25;2.95;;;18.50;51.00;;;;;;4881390;29;20224;-65
2021/03/31 07:58:13;;;;;;;3.70;2.70;;;18.60;51.00;;;;;;4883225;29;20198;-64
2021/03/31 08:01:03;;;;;;;3.25;2.95;;;18.60;51.00;;;;;;4898448;29;20723;-68
2021/03/31 08:03:31;;;;;;;4.40;3.22;;;18.60;50.90;;;;;;4882300;29;20815;-68
2021/03/31 08:06:06;;;;;;;4.15;3.75;;;18.60;50.90;;;;;;4891783;29;20227;-68
2021/03/31 08:08:32;;;;;;;3.40;3.00;;;18.60;50.80;;;;;;4917139;29;20176;-68
2021/03/31 08:10:59;;;;;;;4.05;3.55;;;18.60;50.80;;;;;;4885438;29;20187;-67
2021/03/31 08:13:26;;;;;;;3.92;3.22;;;18.70;50.80;;;;;;4885655;29;20545;-68
2021/03/31 08:15:52;;;;;;;3.60;2.95;;;18.70;50.80;;;;;;4900430;29;20171;-68
2021/03/31 08:18:17;;;;;;;4.32;3.35;;;18.70;50.80;;;;;;4900991;29;20188;-67
2021/03/31 08:20:44;;;;;;;4.55;3.00;;;18.70;50.70;;;;;;4900051;29;20166;-69
2021/03/31 08:23:11;;;;;;;4.88;3.20;;;18.70;50.80;;;;;;4900923;29;20168;-64
2021/03/31 08:25:36;;;;;;;5.30;2.90;;;18.70;50.70;;;;;;4900557;29;20172;-68
2021/03/31 08:28:07;;;;;;;3.67;2.97;;;18.80;50.80;;;;;;4917135;29;20312;-68
2021/03/31 08:30:34;;;;;;;3.45;3.13;;;18.80;50.80;;;;;;4900675;29;20183;-67
2021/03/31 08:32:59;;;;;;;3.50;3.20;;;18.80;50.80;;;;;;4900541;29;20180;-67
2021/03/31 08:35:25;;;;;;;5.68;3.20;;;18.80;50.80;;;;;;4916430;29;20258;-68
2021/03/31 08:37:51;;;;;;;3.72;2.80;;;18.80;50.80;;;;;;4885217;29;20172;-67
2021/03/31 08:40:17;;;;;;;3.75;2.88;;;18.90;50.80;;;;;;4900657;29;20255;-66
2021/03/31 08:42:50;;;;;;;2.97;2.75;;;18.90;50.90;;;;;;4884210;29;20247;-67
2021/03/31 08:45:39;;;;;;;3.17;2.88;;;18.90;50.80;;;;;;4917209;29;20226;-69
2021/03/31 08:48:04;;;;;;;4.57;3.33;;;18.90;50.90;;;;;;4917277;29;20661;-68
2021/03/31 08:50:33;;;;;;;4.30;3.45;;;18.90;50.90;;;;;;4916272;29;20178;-67
2021/03/31 08:53:06;;;;;;;3.10;2.80;;;19.00;50.90;;;;;;4900412;29;20182;-69
2021/03/31 08:55:34;;;;;;;3.25;2.70;;;19.00;51.00;;;;;;4900061;29;20274;-68
2021/03/31 08:58:00;;;;;;;3.28;2.97;;;19.00;51.00;;;;;;4899562;29;20172;-65
2021/03/31 09:00:26;;;;;;;2.75;2.53;;;19.00;51.00;;;;;;4884587;29;20176;-69
2021/03/31 09:03:02;;;;;;;3.60;2.70;;;19.00;51.10;;;;;;4899315;29;20255;-63
2021/03/31 09:05:27;;;;;;;4.78;3.08;;;19.00;51.10;;;;;;4899607;29;20227;-64
2021/03/31 09:08:03;;;;;;;3.65;2.80;;;19.00;51.10;;;;;;4916685;29;20655;-69
2021/03/31 09:10:28;;;;;;;3.15;2.88;;;19.00;51.10;;;;;;4884461;29;20182;-64
2021/03/31 09:12:55;;;;;;;3.70;2.63;;;19.10;51.20;;;;;;4899911;29;20168;-64
2021/03/31 09:15:21;;;;;;;3.95;3.53;;;19.20;51.30;;;;;;4884257;29;20179;-64
2021/03/31 09:17:47;;;;;;;2.92;2.55;;;19.10;51.30;;;;;;4884030;29;20176;-64
2021/03/31 09:20:16;;;;;;;3.35;3.05;;;19.10;51.30;;;;;;4916902;29;20199;-69
2021/03/31 09:22:42;;;;;;;3.53;3.03;;;19.10;51.40;;;;;;4884649;29;20655;-63
2021/03/31 09:25:09;;;;;;;4.28;2.92;;;19.20;51.40;;;;;;4883617;29;20254;-68
2021/03/31 09:27:35;;;;;;;2.38;2.17;;;19.20;51.60;;;;;;4884091;29;20191;-67
2021/03/31 09:30:05;;;;;;;3.03;2.72;;;19.20;51.50;;;;;;4899983;29;20183;-68
2021/03/31 09:32:38;;;;;;;3.85;3.25;;;19.20;51.50;;;;;;4899007;29;20176;-69
2021/03/31 09:35:15;;;;;;;4.65;3.25;;;19.30;51.60;;;;;;4916453;29;20223;-69
2021/03/31 09:37:41;;;;;;;5.03;3.60;;;19.30;51.70;;;;;;4883826;29;20175;-69
2021/03/31 09:40:09;;;;;;;5.25;3.65;;;19.30;51.60;;;;;;4883421;29;20172;-68
2021/03/31 09:42:37;;;;;;;5.05;3.22;;;19.40;51.70;;;;;;4899344;29;20184;-68
2021/03/31 09:45:06;;;;;;;6.50;3.50;;;19.40;51.70;;;;;;4899124;29;20258;-68
2021/03/31 09:47:34;;;;;;;4.45;3.30;;;19.40;51.80;;;;;;4883513;29;20187;-68
2021/03/31 09:50:00;;;;;;;5.10;3.40;;;19.50;51.90;;;;;;4884622;29;20583;-73
2021/03/31 09:52:26;;;;;;;4.38;3.00;;;19.50;51.90;;;;;;4898630;29;20199;-69
2021/03/31 09:54:52;;;;;;;3.42;3.13;;;19.50;51.80;;;;;;4899414;29;20180;-66
2021/03/31 09:57:17;;;;;;;3.42;2.97;;;19.60;51.90;;;;;;4899668;29;20247;-68
2021/03/31 09:59:43;;;;;;;4.78;3.20;;;19.60;51.80;;;;;;4898539;29;20648;-71
2021/03/31 10:02:09;;;;;;;4.07;3.20;;;19.60;51.70;;;;;;4899089;29;20187;-79
2021/03/31 10:04:39;;;;;;;6.18;2.85;;;19.60;51.70;;;;;;4915735;29;20222;-78
2021/03/31 10:07:10;;;;;;;3.47;2.88;;;19.60;52.40;;;;;;4899065;29;20234;-77
2021/03/31 10:09:47;;;;;;;3.88;2.90;;;19.70;51.80;;;;;;4899607;29;20180;-74
2021/03/31 10:12:29;;;;;;;4.90;2.67;;;19.70;51.80;;;;;;4900744;29;20663;-77
2021/03/31 10:14:56;;;;;;;5.45;2.40;;;19.70;51.80;;;;;;4901367;29;20172;-78
2021/03/31 10:17:25;;;;;;;4.47;3.20;;;19.70;51.80;;;;;;4899549;29;20255;-80
2021/03/31 10:19:50;;;;;;;4.78;2.70;;;19.70;51.80;;;;;;4902104;29;20172;-77
2021/03/31 10:22:17;;;;;;;4.18;2.70;;;19.80;51.80;;;;;;4886832;29;20684;-68
2021/03/31 10:24:44;;;;;;;4.03;2.88;;;19.80;51.80;;;;;;4902702;29;20215;-66
2021/03/31 10:27:10;;;;;;;2.97;2.67;;;19.80;51.80;;;;;;4886946;29;20633;-69
2021/03/31 10:29:46;;;;;;;2.92;2.45;;;19.90;51.80;;;;;;4887205;29;20176;-68
2021/03/31 10:32:15;;;;;;;3.28;2.70;;;19.80;51.90;;;;;;4888511;29;20258;-66
2021/03/31 10:34:45;;;;;;;3.22;2.50;;;19.80;51.90;;;;;;4918737;29;20178;-67
2021/03/31 10:37:20;;;;;;;3.75;3.40;;;19.90;52.00;;;;;;4903323;29;20178;-67
2021/03/31 10:56:22;;;;;;;3.53;2.55;;;20.00;52.20;;;;;;4882956;29;20263;-72
2021/03/31 10:58:47;;;;;;;3.72;3.10;;;20.00;52.20;;;;;;4900429;29;20179;-69
2021/03/31 11:01:13;;;;;;;2.97;2.60;;;20.00;52.20;;;;;;4899197;29;20191;-72
2021/03/31 11:03:38;;;;;;;6.25;3.35;;;20.00;52.10;;;;;;4882648;29;20200;-70
2021/03/31 11:06:04;;;;;;;4.38;2.90;;;20.00;52.00;;;;;;4883300;29;20577;-70
2021/03/31 11:08:30;;;;;;;6.28;3.35;;;20.10;52.70;;;;;;4852330;29;20175;-76
2021/03/31 11:10:55;;;;;;;3.83;2.45;;;20.10;52.00;;;;;;4882985;29;20591;-75
2021/03/31 11:13:21;;;;;;;4.32;2.85;;;20.10;52.00;;;;;;4898795;29;20183;-76
2021/03/31 11:15:47;;;;;;;6.45;3.30;;;20.10;51.90;;;;;;4898986;29;20255;-77
2021/03/31 11:18:18;;;;;;;8.20;3.38;;;20.10;52.00;;;;;;4899692;29;20172;-74
2021/03/31 11:26:12;;;;;;;5.75;3.00;;;20.20;51.80;;;;;;4899668;29;20183;-67
2021/03/31 11:28:38;;;;;;;5.30;2.33;;;20.30;51.80;;;;;;4882966;29;20386;-67
2021/03/31 11:31:05;;;;;;;7.32;2.83;;;20.30;51.80;;;;;;4899055;29;20184;-63
2021/03/31 11:33:30;;;;;;;6.88;3.05;;;20.30;51.70;;;;;;4899299;29;20512;-69
2021/03/31 11:35:56;;;;;;;6.70;2.63;;;20.40;51.80;;;;;;4882796;29;20183;-68
2021/03/31 11:38:23;;;;;;;3.03;2.63;;;20.40;51.70;;;;;;4882086;29;20179;-69
2021/03/31 11:40:49;;;;;;;2.80;2.47;;;20.40;51.70;;;;;;4899615;29;20633;-69
2021/03/31 11:43:15;;;;;;;4.32;2.75;;;20.40;51.70;;;;;;4882973;29;20188;-70
2021/03/31 11:45:41;;;;;;;4.38;2.50;;;20.50;51.70;;;;;;4881984;29;20177;-71
2021/03/31 11:48:07;;;;;;;3.78;2.40;;;20.50;51.70;;;;;;4882703;29;20236;-70
2021/03/31 11:50:33;;;;;;;5.03;2.72;;;20.50;51.70;;;;;;4882388;29;20633;-69
2021/03/31 11:52:58;;;;;;;4.45;2.65;;;20.60;51.60;;;;;;4882080;29;20268;-69
2021/03/31 11:55:24;;;;;;;3.05;2.75;;;20.60;51.60;;;;;;4882306;29;20196;-69
2021/03/31 11:57:50;;;;;;;5.53;3.13;;;20.60;51.60;;;;;;4882746;29;20180;-71
2021/03/31 12:00:16;;;;;;;6.72;2.63;;;20.60;51.50;;;;;;4881854;29;20180;-71
2021/03/31 12:02:43;;;;;;;5.13;3.63;;;20.60;51.30;;;;;;4897714;29;20539;-70
2021/03/31 12:05:09;;;;;;;6.15;3.70;;;20.60;51.20;;;;;;4866546;29;20220;-72
2021/03/31 12:07:34;;;;;;;5.63;3.47;;;20.60;51.00;;;;;;4898436;29;20180;-71
2021/03/31 12:10:06;;;;;;;5.15;3.28;;;20.60;50.90;;;;;;4897786;29;20184;-69
2021/03/31 12:12:32;;;;;;;6.05;3.65;;;20.70;50.80;;;;;;4897677;29;20631;-71
2021/03/31 12:14:57;;;;;;;5.72;3.70;;;20.70;50.70;;;;;;4881406;29;20189;-74
2021/03/31 12:17:23;;;;;;;5.30;3.30;;;20.70;50.70;;;;;;4897702;29;20169;-68
2021/03/31 12:19:48;;;;;;;7.18;4.22;;;20.80;50.60;;;;;;4898303;29;20260;-69
2021/03/31 12:22:14;;;;;;;4.47;3.50;;;20.80;50.50;;;;;;4898913;29;20637;-72
2021/03/31 12:24:40;;;;;;;4.45;3.42;;;20.80;50.50;;;;;;4881802;29;20212;-72
2021/03/31 12:27:08;;;;;;;5.43;3.15;;;20.80;50.60;;;;;;4897022;29;20184;-72
2021/03/31 12:29:34;;;;;;;5.53;3.53;;;20.80;50.40;;;;;;4897387;29;20169;-72
2021/03/31 12:31:59;;;;;;;4.18;3.50;;;20.80;51.10;;;;;;4897602;29;20532;-72
2021/03/31 12:34:28;;;;;;;4.15;3.38;;;20.80;50.40;;;;;;4880923;29;20211;-72
2021/03/31 12:36:54;;;;;;;5.40;3.65;;;20.80;50.40;;;;;;4897364;29;20255;-74
2021/03/31 12:39:19;;;;;;;3.28;2.95;;;20.80;50.30;;;;;;4866108;29;20267;-72
2021/03/31 12:41:45;;;;;;;8.10;4.43;;;20.80;50.30;;;;;;4896166;29;20608;-73
2021/03/31 12:44:10;;;;;;;5.07;3.78;;;20.80;50.30;;;;;;4897166;29;20216;-77
2021/03/31 12:46:36;;;;;;;4.95;3.60;;;20.90;50.10;;;;;;4865891;29;20176;-68
2021/03/31 12:49:02;;;;;;;6.38;3.85;;;21.00;50.00;;;;;;4897647;29;20212;-70
2021/03/31 12:51:40;;;;;;;5.80;3.42;;;21.10;49.70;;;;;;4896871;29;20177;-70
2021/03/31 12:54:12;;;;;;;7.60;3.72;;;21.10;49.60;;;;;;4897303;29;20204;-68
2021/03/31 12:56:38;;;;;;;4.18;3.13;;;21.20;49.50;;;;;;4897533;29;20620;-76
2021/03/31 12:59:03;;;;;;;4.93;3.38;;;21.20;49.50;;;;;;4897198;29;20207;-75
2021/03/31 13:01:29;;;;;;;6.25;3.67;;;21.20;49.50;;;;;;4896896;29;20248;-70
2021/03/31 13:03:55;;;;;;;3.95;3.05;;;21.30;49.40;;;;;;4897226;29;20209;-70
2021/03/31 13:06:23;;;;;;;4.22;3.80;;;21.30;50.00;;;;;;4897859;29;20224;-70
2021/03/31 13:08:52;;;;;;;7.90;3.10;;;21.40;49.20;;;;;;4897946;29;20633;-71
2021/03/31 13:11:18;;;;;;;6.63;3.70;;;21.40;49.20;;;;;;4897956;29;20362;-71
2021/03/31 13:16:26;;;;;;;4.22;3.00;;;21.40;49.00;;;;;;4887087;29;20218;-68
2021/03/31 13:24:33;;;;;;;6.05;4.63;;;21.40;48.40;;;;;;4896820;29;20304;-68